createdAt,value
2022-09-13T00:01:57.941Z,13.8
2022-09-13T00:13:58.062Z,13.6
2022-09-13T00:25:57.834Z,13.4
2022-09-13T00:37:58.208Z,13.6
2022-09-13T00:49:58.032Z,13.5
2022-09-13T01:01:58.154Z,13.3
2022-09-13T01:13:57.932Z,13.7
2022-09-13T01:25:58.297Z,13.6
2022-09-13T01:37:58.228Z,13.6
2022-09-13T01:49:58.185Z,13.6
2022-09-13T02:01:58.471Z,13.8
2022-09-13T02:13:57.880Z,14.1
2022-09-13T02:25:57.876Z,14.6
2022-09-13T02:37:57.878Z,14.8
2022-09-13T02:49:57.896Z,14.8
2022-09-13T03:01:58.349Z,14.7
2022-09-13T03:13:57.884Z,14.8
2022-09-13T03:25:57.858Z,14.8
2022-09-13T03:37:57.876Z,14.8
2022-09-13T03:49:57.891Z,14.9
2022-09-13T04:01:57.939Z,14.9
2022-09-13T04:13:57.866Z,14.9
2022-09-13T04:25:57.866Z,14.8
2022-09-13T04:37:57.868Z,14.6
2022-09-13T04:49:57.843Z,14.7
2022-09-13T05:01:57.859Z,14.8
2022-09-13T05:13:57.869Z,14.9
2022-09-13T05:25:57.877Z,14.6
2022-09-13T05:37:57.860Z,14.8
2022-09-13T05:50:09.752Z,15.0
2022-09-13T06:01:57.999Z,15.1
2022-09-13T06:13:57.869Z,15.3
2022-09-13T06:25:59.315Z,15.5
2022-09-13T06:37:57.857Z,15.7
2022-09-13T06:49:57.877Z,15.7
2022-09-13T07:01:57.930Z,15.6
2022-09-13T07:13:57.842Z,16.0
2022-09-13T07:25:57.866Z,16.5
2022-09-13T07:37:57.837Z,16.8
2022-09-13T07:49:57.869Z,17.1
2022-09-13T08:01:57.959Z,17.3
2022-09-13T08:13:57.867Z,17.4
2022-09-13T08:25:57.879Z,17.6
2022-09-13T08:37:57.848Z,17.7
2022-09-13T08:49:57.885Z,17.7
2022-09-13T09:01:57.876Z,17.7
2022-09-13T09:13:57.906Z,17.7
2022-09-13T09:25:57.873Z,17.9
2022-09-13T09:37:57.830Z,18.4
2022-09-13T09:49:57.904Z,18.7
2022-09-13T10:01:57.955Z,19.4
2022-09-13T10:13:57.904Z,20.0
2022-09-13T10:25:57.866Z,20.7
2022-09-13T10:37:57.867Z,20.3
2022-09-13T10:49:58.137Z,20.1
2022-09-13T11:01:57.827Z,20.1
2022-09-13T11:13:57.877Z,20.3
2022-09-13T11:25:57.880Z,21.3
2022-09-13T11:37:57.885Z,22.6
2022-09-13T11:49:57.892Z,22.4
2022-09-13T12:01:57.990Z,22.4
2022-09-13T12:13:57.885Z,22.5
2022-09-13T12:25:58.758Z,22.5
2022-09-13T12:37:57.894Z,22.7
2022-09-13T12:50:01.441Z,23.2
2022-09-13T13:01:57.974Z,22.7
2022-09-13T13:13:57.878Z,22.5
2022-09-13T13:25:57.889Z,22.1
2022-09-13T13:37:58.411Z,22.0
2022-09-13T13:49:57.898Z,21.9
2022-09-13T14:01:57.867Z,21.7
2022-09-13T14:13:57.908Z,21.9
2022-09-13T14:25:57.863Z,21.9
2022-09-13T14:37:57.962Z,21.6
2022-09-13T14:49:57.935Z,21.1
2022-09-13T15:02:02.641Z,20.6
2022-09-13T15:13:58.275Z,20.3
2022-09-13T15:25:58.359Z,20.3
2022-09-13T15:37:58.053Z,20.3
2022-09-13T15:49:57.912Z,20.3
2022-09-13T16:01:58.518Z,20.1
2022-09-13T16:13:58.234Z,20.1
2022-09-13T16:25:58.377Z,19.9
2022-09-13T16:37:58.365Z,19.6
2022-09-13T16:49:58.075Z,19.3
2022-09-13T17:01:58.254Z,19.0
2022-09-13T17:13:58.458Z,18.8
2022-09-13T17:25:58.541Z,18.6
2022-09-13T17:37:58.181Z,18.5
2022-09-13T17:49:58.400Z,18.4
2022-09-13T18:01:57.997Z,18.5
2022-09-13T18:13:57.937Z,18.4
2022-09-13T18:26:02.124Z,18.0
2022-09-13T18:37:57.838Z,17.9
2022-09-13T18:49:57.889Z,17.9
2022-09-13T19:01:57.983Z,18.0
2022-09-13T19:13:57.881Z,17.9
2022-09-13T19:25:57.890Z,17.7
2022-09-13T19:37:57.863Z,17.7
2022-09-13T19:49:57.893Z,17.6
2022-09-13T20:01:58.049Z,17.5
2022-09-13T20:13:57.867Z,17.4
2022-09-13T20:25:57.876Z,17.3
2022-09-13T20:37:57.875Z,17.3
2022-09-13T20:49:57.897Z,17.2
2022-09-13T21:01:57.878Z,17.2
2022-09-13T21:13:57.866Z,17.3
2022-09-13T21:25:57.890Z,17.2
2022-09-13T21:37:57.864Z,17.0
2022-09-13T21:49:57.891Z,17.0
2022-09-13T22:01:57.939Z,17.1
2022-09-13T22:13:57.864Z,17.1
2022-09-13T22:25:57.881Z,17.1
2022-09-13T22:37:58.174Z,17.0
2022-09-13T22:49:57.872Z,17.0
2022-09-13T23:01:57.853Z,17.0
2022-09-13T23:13:57.834Z,17.0
2022-09-13T23:25:57.929Z,17.1
2022-09-13T23:37:57.878Z,17.1
2022-09-13T23:49:57.893Z,17.1
